Time;durP1;ratioP1;P1;durP2;ratioP2;P2;SDS_P1;SDS_P2;PMS_P1;PMS_P2;Temp;Humidity;BMP_temperature;BMP_pressure;BME280_temperature;BME280_humidity;BME280_pressure;Samples;Min_cycle;Max_cycle;Signal;HPM_P1;HPM_P2
2022/04/02 00:00:31;;;;;;;7.97;2.65;;;1.00;99.90;;;;;;4925636;28;34845;-79
2022/04/02 00:02:57;;;;;;;8.85;2.88;;;1.00;99.90;;;;;;4963487;28;20058;-79
2022/04/02 00:05:27;;;;;;;10.18;3.10;;;0.90;99.90;;;;;;4903253;28;186320;-78
2022/04/02 00:07:53;;;;;;;9.55;3.17;;;0.90;99.90;;;;;;4947930;28;20053;-78
2022/04/02 00:10:19;;;;;;;8.27;3.20;;;0.90;99.90;;;;;;4928308;28;264738;-79
2022/04/02 00:12:45;;;;;;;8.05;2.92;;;0.90;99.90;;;;;;4973445;28;20046;-79
2022/04/02 00:15:12;;;;;;;10.75;3.28;;;0.90;99.90;;;;;;4933439;28;45828;-79
2022/04/02 00:17:38;;;;;;;10.80;3.50;;;0.90;99.90;;;;;;4973701;28;20047;-79
2022/04/02 00:20:05;;;;;;;9.63;3.45;;;0.80;99.90;;;;;;4926401;28;83975;-80
2022/04/02 00:22:31;;;;;;;10.35;3.30;;;0.80;99.90;;;;;;4965981;28;20465;-79
2022/04/02 00:24:57;;;;;;;10.85;3.72;;;0.80;99.90;;;;;;4937345;28;241563;-78
2022/04/02 00:27:23;;;;;;;8.15;2.92;;;0.70;99.90;;;;;;4930121;28;20038;-79
2022/04/02 00:29:49;;;;;;;9.70;3.58;;;0.70;99.90;;;;;;4955265;28;69199;-78
2022/04/02 00:32:16;;;;;;;9.20;3.60;;;0.70;99.90;;;;;;4926023;28;20063;-78
2022/04/02 00:34:42;;;;;;;8.18;3.08;;;0.60;99.90;;;;;;4949609;28;155361;-79
2022/04/02 00:37:08;;;;;;;10.40;3.60;;;0.60;99.90;;;;;;4901239;28;20050;-79
2022/04/02 00:39:34;;;;;;;10.55;3.97;;;0.60;99.90;;;;;;4955814;28;43617;-78
2022/04/02 00:42:00;;;;;;;10.38;4.10;;;0.50;99.90;;;;;;4928609;28;20047;-78
2022/04/02 00:44:26;;;;;;;10.23;3.22;;;0.60;99.90;;;;;;4952116;28;85616;-79
2022/04/02 00:46:52;;;;;;;9.68;3.78;;;0.60;99.90;;;;;;4932431;28;20038;-78
2022/04/02 00:49:20;;;;;;;9.50;3.67;;;0.50;99.90;;;;;;4959570;28;61992;-79
2022/04/02 00:51:49;;;;;;;10.10;3.72;;;0.50;99.90;;;;;;4929995;28;20039;-79
2022/04/02 00:54:17;;;;;;;11.45;3.53;;;0.50;99.90;;;;;;4961486;28;32725;-79
2022/04/02 00:56:44;;;;;;;11.65;3.78;;;0.40;99.90;;;;;;4936975;28;20046;-79
2022/04/02 00:59:12;;;;;;;11.50;4.35;;;0.50;99.90;;;;;;4956782;28;276441;-78
2022/04/02 01:01:39;;;;;;;9.15;3.70;;;0.40;99.90;;;;;;4914307;28;20047;-78
2022/04/02 01:04:06;;;;;;;11.13;3.37;;;0.40;99.90;;;;;;4934672;28;248898;-77
2022/04/02 01:06:33;;;;;;;11.57;4.40;;;0.40;99.90;;;;;;4921412;28;20039;-78
2022/04/02 01:09:02;;;;;;;11.88;3.70;;;0.40;99.90;;;;;;4947528;28;273836;-78
2022/04/02 01:11:56;;;;;;;12.65;3.70;;;0.40;99.90;;;;;;4920145;28;20048;-78
2022/04/02 01:14:23;;;;;;;11.05;3.55;;;0.30;99.90;;;;;;4957490;28;119531;-78
2022/04/02 01:16:49;;;;;;;8.70;3.50;;;0.30;99.90;;;;;;4921211;28;20042;-77
2022/04/02 01:19:16;;;;;;;9.70;3.50;;;0.30;99.90;;;;;;4975875;28;77468;-77
2022/04/02 01:21:49;;;;;;;9.32;3.42;;;0.30;99.90;;;;;;4922128;28;20492;-77
2022/04/02 01:24:15;;;;;;;12.27;3.80;;;0.30;99.90;;;;;;4954685;28;158682;-79
2022/04/02 01:26:42;;;;;;;12.48;3.22;;;0.20;99.90;;;;;;4913982;28;20054;-78
2022/04/02 01:29:08;;;;;;;10.63;3.53;;;0.20;99.90;;;;;;4948309;28;259682;-78
2022/04/02 01:31:34;;;;;;;11.27;3.45;;;0.20;99.90;;;;;;4925681;28;20069;-77
2022/04/02 01:34:00;;;;;;;10.52;3.42;;;0.20;99.90;;;;;;4951939;28;257918;-77
2022/04/02 01:36:27;;;;;;;9.98;3.42;;;0.20;99.90;;;;;;4923663;28;20045;-77
2022/04/02 01:38:53;;;;;;;9.23;3.10;;;0.20;99.90;;;;;;4946978;28;275389;-76
2022/04/02 01:41:20;;;;;;;9.93;3.42;;;0.20;99.90;;;;;;4922524;28;20057;-77
2022/04/02 01:43:46;;;;;;;9.35;3.15;;;0.20;99.90;;;;;;4966051;28;20102;-78
2022/04/02 01:46:12;;;;;;;10.55;3.53;;;0.20;99.90;;;;;;4903607;28;238970;-77
2022/04/02 01:48:39;;;;;;;8.68;3.30;;;0.10;99.90;;;;;;4950826;28;20055;-77
2022/04/02 01:51:06;;;;;;;9.90;3.60;;;0.10;99.90;;;;;;4910841;28;248667;-77
2022/04/02 01:53:32;;;;;;;10.75;3.67;;;0.10;99.90;;;;;;4960059;28;20077;-77
2022/04/02 01:55:58;;;;;;;9.90;3.33;;;0.20;99.90;;;;;;4925953;28;124280;-78
2022/04/02 01:58:25;;;;;;;9.02;3.40;;;0.20;99.90;;;;;;4965880;28;20661;-77
2022/04/02 02:00:51;;;;;;;9.15;3.33;;;0.20;99.90;;;;;;4931613;28;20043;-78
2022/04/02 02:03:17;;;;;;;9.63;3.47;;;0.10;99.90;;;;;;4985683;28;20058;-78
2022/04/02 02:05:44;;;;;;;9.18;3.13;;;0.10;99.90;;;;;;4895586;28;226534;-78
2022/04/02 02:08:10;;;;;;;10.23;3.78;;;0.10;99.90;;;;;;4942920;28;20058;-78
2022/04/02 02:10:36;;;;;;;14.57;3.28;;;0.20;99.90;;;;;;4923319;28;212156;-78
2022/04/02 02:13:03;;;;;;;9.40;3.55;;;0.20;99.90;;;;;;4974863;28;20057;-78
2022/04/02 02:15:29;;;;;;;11.05;3.80;;;0.20;99.90;;;;;;4941643;28;20051;-79
2022/04/02 02:17:55;;;;;;;11.77;3.40;;;0.20;99.90;;;;;;4956639;28;20052;-79
2022/04/02 02:20:21;;;;;;;10.50;3.67;;;0.20;99.90;;;;;;4927249;28;109429;-79
2022/04/02 02:22:50;;;;;;;12.60;3.63;;;0.20;99.90;;;;;;4946671;28;20082;-78
2022/04/02 02:25:17;;;;;;;11.80;3.90;;;0.20;99.90;;;;;;4922779;28;247014;-78
2022/04/02 02:27:45;;;;;;;8.70;3.42;;;0.20;99.90;;;;;;4953325;28;20692;-79
2022/04/02 02:30:13;;;;;;;10.95;4.00;;;0.20;99.90;;;;;;4923929;28;148511;-79
2022/04/02 02:32:39;;;;;;;10.32;3.92;;;0.20;99.90;;;;;;4938386;28;20047;-78
2022/04/02 02:38:11;;;;;;;8.68;3.47;;;0.20;99.90;;;;;;4944138;28;20047;-78
2022/04/02 02:40:39;;;;;;;9.85;3.70;;;0.20;99.90;;;;;;4918043;28;259515;-79
2022/04/02 02:43:06;;;;;;;9.73;3.60;;;0.20;99.90;;;;;;4940511;28;20061;-78
2022/04/02 02:45:33;;;;;;;12.02;3.72;;;0.10;99.90;;;;;;4924481;28;29417;-78
2022/04/02 02:48:00;;;;;;;10.75;3.90;;;0.10;99.90;;;;;;4944345;28;20066;-78
2022/04/02 02:50:27;;;;;;;12.45;3.65;;;0.10;99.90;;;;;;4913912;28;21933;-77
2022/04/02 02:52:53;;;;;;;13.27;3.95;;;0.20;99.90;;;;;;4938875;28;20059;-78
2022/04/02 02:55:20;;;;;;;9.93;3.78;;;0.10;99.90;;;;;;4920509;28;235420;-78
2022/04/02 02:57:46;;;;;;;11.93;3.88;;;0.10;99.90;;;;;;4947292;28;20046;-78
2022/04/02 03:00:15;;;;;;;11.10;3.83;;;0.10;99.90;;;;;;4950716;22;257250;-76
2022/04/02 03:02:42;;;;;;;10.52;3.20;;;0.10;99.90;;;;;;4951744;28;20547;-77
2022/04/02 03:05:13;;;;;;;8.95;3.28;;;0.10;99.90;;;;;;4899988;28;184094;-77
2022/04/02 03:07:51;;;;;;;12.45;3.70;;;0.10;99.90;;;;;;4939064;28;20461;-78
2022/04/02 03:10:19;;;;;;;10.05;3.50;;;0.10;99.90;;;;;;4904105;28;187220;-77
2022/04/02 03:12:47;;;;;;;12.40;3.30;;;0.10;99.90;;;;;;4940683;28;20425;-77
2022/04/02 03:15:15;;;;;;;13.63;3.30;;;0.20;99.90;;;;;;4922493;28;257436;-78
2022/04/02 03:17:45;;;;;;;9.90;3.28;;;0.10;99.90;;;;;;4953293;28;20046;-77
2022/04/02 03:20:12;;;;;;;11.20;3.30;;;0.10;99.90;;;;;;4925601;28;58152;-78
2022/04/02 03:22:40;;;;;;;10.35;3.38;;;0.10;99.90;;;;;;4961678;28;20622;-77
2022/04/02 03:25:09;;;;;;;9.20;2.80;;;0.10;99.90;;;;;;4919091;28;198545;-77
2022/04/02 03:27:36;;;;;;;10.27;3.45;;;0.10;99.90;;;;;;4929075;28;20055;-77
2022/04/02 03:30:05;;;;;;;11.15;3.38;;;0.10;99.90;;;;;;4929944;28;75216;-77
2022/04/02 03:32:31;;;;;;;8.95;3.13;;;0.10;99.90;;;;;;4947704;28;20035;-78
2022/04/02 03:34:58;;;;;;;10.60;2.90;;;0.10;99.90;;;;;;4947785;28;194854;-77
2022/04/02 03:37:25;;;;;;;11.18;3.25;;;0.00;99.90;;;;;;4952322;28;20451;-78
2022/04/02 03:39:52;;;;;;;10.23;3.20;;;0.00;99.90;;;;;;4945234;28;118503;-78
2022/04/02 03:42:19;;;;;;;15.48;3.40;;;0.00;99.90;;;;;;4925021;28;20069;-78
2022/04/02 03:44:45;;;;;;;9.38;3.08;;;0.00;99.90;;;;;;4946591;28;20065;-78
2022/04/02 03:47:11;;;;;;;11.57;3.28;;;0.00;99.90;;;;;;4913514;28;20488;-78
2022/04/02 03:49:42;;;;;;;11.00;3.40;;;-0.10;99.90;;;;;;4937690;28;239085;-78
2022/04/02 03:52:09;;;;;;;8.77;2.83;;;-0.10;99.90;;;;;;4912105;28;20051;-78
2022/04/02 03:54:36;;;;;;;13.48;3.45;;;-0.10;99.90;;;;;;4944980;28;82496;-78
2022/04/02 03:57:07;;;;;;;9.55;3.10;;;-0.10;99.90;;;;;;4926801;28;20046;-78
2022/04/02 03:59:33;;;;;;;12.50;3.38;;;-0.10;99.90;;;;;;4939016;28;147025;-78
2022/04/02 04:02:00;;;;;;;8.80;3.05;;;-0.10;99.90;;;;;;4930005;28;20050;-78
2022/04/02 04:04:27;;;;;;;13.77;3.40;;;-0.10;99.90;;;;;;4946513;28;118914;-78
2022/04/02 04:06:54;;;;;;;10.25;2.80;;;-0.10;99.90;;;;;;4909472;28;20043;-78
2022/04/02 04:09:20;;;;;;;10.95;2.70;;;-0.10;99.90;;;;;;4935774;28;132890;-78
2022/04/02 04:11:47;;;;;;;10.90;3.38;;;-0.10;99.90;;;;;;4922478;28;20066;-78
2022/04/02 04:14:15;;;;;;;10.70;3.05;;;-0.10;99.90;;;;;;4919486;28;280097;-78
2022/04/02 04:16:42;;;;;;;10.98;3.30;;;-0.10;99.90;;;;;;4933780;28;20043;-77
2022/04/02 04:19:08;;;;;;;9.73;3.00;;;-0.10;99.90;;;;;;4966664;28;256423;-78
2022/04/02 04:21:34;;;;;;;11.52;3.10;;;-0.10;99.90;;;;;;4934973;28;20039;-77
2022/04/02 04:24:01;;;;;;;8.23;2.83;;;0.00;99.90;;;;;;4913871;28;264512;-77
2022/04/02 04:26:27;;;;;;;10.35;3.10;;;-0.10;99.90;;;;;;4940666;28;20039;-77
2022/04/02 04:28:53;;;;;;;9.53;2.80;;;-0.10;99.90;;;;;;4967438;28;263727;-77
2022/04/02 04:31:20;;;;;;;14.15;3.13;;;-0.20;99.90;;;;;;4926716;28;20067;-77
2022/04/02 04:33:47;;;;;;;10.48;2.97;;;-0.10;99.90;;;;;;4955513;28;20059;-77
2022/04/02 04:36:15;;;;;;;10.07;3.22;;;-0.20;99.90;;;;;;4908873;28;20046;-77
2022/04/02 04:38:42;;;;;;;11.15;3.35;;;-0.20;99.90;;;;;;4963164;28;20058;-77
2022/04/02 04:41:08;;;;;;;12.35;3.15;;;-0.20;99.90;;;;;;4944464;28;125449;-77
2022/04/02 04:43:35;;;;;;;9.20;3.13;;;-0.20;99.90;;;;;;4966372;28;20066;-77
2022/04/02 04:46:04;;;;;;;10.68;2.88;;;-0.20;99.90;;;;;;4923812;28;257267;-77
2022/04/02 04:48:30;;;;;;;12.32;3.20;;;-0.20;99.90;;;;;;4948719;28;20523;-77
2022/04/02 04:50:56;;;;;;;9.90;3.00;;;-0.20;99.90;;;;;;4928162;28;64429;-78
2022/04/02 04:53:23;;;;;;;12.23;2.97;;;-0.30;99.90;;;;;;4929262;28;20046;-78
2022/04/02 04:55:49;;;;;;;11.45;2.80;;;-0.30;99.90;;;;;;4927966;28;55449;-78
2022/04/02 04:58:15;;;;;;;13.63;3.00;;;-0.30;99.90;;;;;;4948284;28;20047;-78
2022/04/02 05:00:41;;;;;;;10.32;3.03;;;-0.30;99.90;;;;;;4919091;28;133540;-78
2022/04/02 05:03:10;;;;;;;12.35;3.10;;;-0.40;99.90;;;;;;4946081;28;20070;-78
2022/04/02 05:05:38;;;;;;;12.68;2.97;;;-0.40;99.90;;;;;;4932732;28;23182;-77
2022/04/02 05:08:06;;;;;;;10.65;3.20;;;-0.30;99.90;;;;;;4938897;28;20059;-77
2022/04/02 05:10:33;;;;;;;9.70;3.00;;;-0.30;99.90;;;;;;4909957;28;226683;-77
2022/04/02 05:13:00;;;;;;;11.50;3.17;;;-0.30;99.90;;;;;;4951448;28;20066;-77
2022/04/02 05:15:26;;;;;;;8.50;2.83;;;-0.30;99.90;;;;;;4919064;28;202426;-78
2022/04/02 05:17:54;;;;;;;12.50;3.15;;;-0.20;99.90;;;;;;4970716;28;20050;-78
2022/04/02 05:20:20;;;;;;;9.52;3.10;;;-0.20;99.90;;;;;;4922983;28;171986;-77
2022/04/02 05:22:46;;;;;;;9.30;2.72;;;-0.10;99.90;;;;;;4936393;28;20054;-77
2022/04/02 05:25:12;;;;;;;9.90;3.05;;;0.00;99.90;;;;;;4924642;28;48403;-77
2022/04/02 05:27:38;;;;;;;9.77;3.33;;;0.00;99.90;;;;;;4923210;28;20081;-77
2022/04/02 05:30:05;;;;;;;14.38;3.08;;;0.10;99.90;;;;;;4919593;28;457655;-76
2022/04/02 05:32:31;;;;;;;10.02;3.00;;;0.20;99.90;;;;;;4977739;28;20062;-77
2022/04/02 05:34:58;;;;;;;10.20;3.22;;;0.20;99.90;;;;;;4951549;28;78136;-77
2022/04/02 05:37:24;;;;;;;11.43;3.03;;;0.30;99.90;;;;;;4932241;28;20050;-77
2022/04/02 05:39:50;;;;;;;10.23;3.03;;;0.30;99.90;;;;;;4942158;28;60410;-77
2022/04/02 05:42:17;;;;;;;11.50;3.25;;;0.40;99.90;;;;;;4964710;28;20049;-78
2022/04/02 05:44:43;;;;;;;11.32;2.70;;;0.50;99.90;;;;;;4948527;28;130606;-78
2022/04/02 05:47:09;;;;;;;12.40;2.95;;;0.50;99.90;;;;;;4940203;28;20050;-77
2022/04/02 05:49:36;;;;;;;10.55;2.85;;;0.60;99.90;;;;;;4973996;28;128646;-78
2022/04/02 05:52:04;;;;;;;11.45;3.25;;;0.60;99.90;;;;;;4949371;28;20547;-77
2022/04/02 05:54:31;;;;;;;9.90;2.78;;;0.70;99.90;;;;;;4961502;28;84473;-77
2022/04/02 05:56:58;;;;;;;13.65;3.38;;;0.70;99.90;;;;;;4940536;28;20038;-77
2022/04/02 05:59:24;;;;;;;14.65;3.05;;;0.70;99.90;;;;;;4933493;28;97237;-77
2022/04/02 06:01:50;;;;;;;8.23;2.70;;;0.70;99.90;;;;;;4935708;28;20035;-78
2022/04/02 06:04:17;;;;;;;9.52;3.13;;;0.70;99.90;;;;;;4936693;28;205047;-78
2022/04/02 06:06:43;;;;;;;11.00;3.03;;;0.70;99.90;;;;;;4940753;28;20043;-78
2022/04/02 06:09:11;;;;;;;11.80;3.00;;;0.80;99.90;;;;;;4940691;28;255028;-78
2022/04/02 06:11:38;;;;;;;9.85;2.97;;;0.80;99.90;;;;;;4941985;28;20061;-78
2022/04/02 06:14:04;;;;;;;12.02;3.28;;;0.90;99.90;;;;;;4936640;28;260233;-78
2022/04/02 06:16:30;;;;;;;10.27;2.92;;;0.90;99.90;;;;;;4954594;28;20058;-78
2022/04/02 06:18:56;;;;;;;13.85;3.60;;;1.00;99.90;;;;;;4940015;28;265068;-78
2022/04/02 06:21:22;;;;;;;12.00;3.40;;;1.10;99.90;;;;;;4961342;28;20496;-78
2022/04/02 06:23:48;;;;;;;10.23;3.50;;;1.20;99.90;;;;;;4971453;28;260831;-76
2022/04/02 06:26:14;;;;;;;11.98;3.20;;;1.30;99.90;;;;;;4949331;28;20481;-77
2022/04/02 06:28:42;;;;;;;9.55;3.30;;;1.50;99.90;;;;;;4946158;28;20054;-78
2022/04/02 06:31:09;;;;;;;10.52;3.45;;;1.70;99.90;;;;;;4915511;28;208018;-78
2022/04/02 06:33:35;;;;;;;12.27;3.65;;;1.90;99.90;;;;;;4943114;28;20059;-78
2022/04/02 06:36:01;;;;;;;11.77;3.80;;;2.20;99.90;;;;;;4917296;28;252063;-78
2022/04/02 06:38:27;;;;;;;10.40;3.00;;;2.60;99.90;;;;;;4980873;28;20051;-77
2022/04/02 06:40:53;;;;;;;10.30;3.33;;;2.80;99.90;;;;;;4930806;28;150984;-76
2022/04/02 06:43:20;;;;;;;13.95;3.10;;;2.90;99.90;;;;;;4968871;28;20252;-76
2022/04/02 06:45:46;;;;;;;12.55;3.08;;;3.00;99.90;;;;;;4933356;28;92725;-76
2022/04/02 06:48:13;;;;;;;9.45;3.10;;;3.10;99.90;;;;;;4960757;28;20047;-75
2022/04/02 06:50:40;;;;;;;13.32;3.13;;;3.20;99.90;;;;;;4925797;28;247004;-74
2022/04/02 06:53:06;;;;;;;13.82;2.72;;;3.30;99.90;;;;;;4943603;28;20503;-74
2022/04/02 06:55:33;;;;;;;11.10;3.10;;;3.30;99.90;;;;;;4909620;28;143240;-75
2022/04/02 06:58:00;;;;;;;10.20;2.90;;;3.30;99.90;;;;;;4957382;28;20066;-74
2022/04/02 07:00:26;;;;;;;12.75;2.80;;;3.40;99.90;;;;;;4908663;28;192902;-74
2022/04/02 07:02:52;;;;;;;8.57;2.53;;;3.60;99.90;;;;;;4959424;28;20058;-74
2022/04/02 07:05:18;;;;;;;9.85;2.90;;;3.60;99.90;;;;;;4899654;28;201387;-74
2022/04/02 07:07:45;;;;;;;9.55;2.85;;;3.60;99.90;;;;;;4956794;28;20427;-75
2022/04/02 07:10:13;;;;;;;9.18;3.00;;;3.70;99.90;;;;;;4946281;28;141101;-74
2022/04/02 07:12:39;;;;;;;9.48;2.85;;;3.70;99.90;;;;;;4997245;28;20051;-75
2022/04/02 07:15:07;;;;;;;8.45;2.70;;;3.80;99.90;;;;;;4942081;28;22365;-74
2022/04/02 07:17:35;;;;;;;8.63;2.30;;;3.90;99.90;;;;;;4941216;28;20051;-75
2022/04/02 07:20:02;;;;;;;10.32;2.83;;;3.90;99.90;;;;;;4940785;28;248201;-75
2022/04/02 07:22:28;;;;;;;9.20;2.40;;;4.00;99.90;;;;;;4927054;28;20042;-74
2022/04/02 07:24:56;;;;;;;11.45;2.90;;;4.10;99.90;;;;;;4956029;28;20419;-74
2022/04/02 07:27:30;;;;;;;8.25;2.20;;;4.10;99.90;;;;;;4917152;28;20050;-74
2022/04/02 07:29:57;;;;;;;12.98;2.95;;;4.20;99.90;;;;;;4947848;28;187346;-75
2022/04/02 07:32:24;;;;;;;10.80;2.85;;;4.30;99.90;;;;;;4965687;28;20047;-75
2022/04/02 07:34:50;;;;;;;11.02;2.60;;;4.50;99.90;;;;;;4944468;28;125178;-74
2022/04/02 07:37:35;;;;;;;7.85;2.45;;;4.70;99.90;;;;;;4952073;28;20049;-73
2022/04/02 07:40:11;;;;;;;8.65;2.50;;;4.90;99.90;;;;;;4938742;28;263408;-74
2022/04/02 07:42:58;;;;;;;12.15;2.40;;;5.10;99.90;;;;;;4936943;28;20054;-72
2022/04/02 07:45:32;;;;;;;12.07;2.55;;;5.40;99.90;;;;;;4932221;28;179108;-73
2022/04/02 07:47:58;;;;;;;7.68;2.08;;;5.20;99.90;;;;;;4946989;28;21626;-73
2022/04/02 07:50:26;;;;;;;10.82;2.10;;;5.00;99.90;;;;;;4912059;28;215972;-73
2022/04/02 07:52:55;;;;;;;8.27;2.17;;;4.80;99.90;;;;;;4946491;28;20067;-72
2022/04/02 07:55:23;;;;;;;10.38;1.90;;;4.70;99.90;;;;;;4928749;28;195475;-72
2022/04/02 07:57:51;;;;;;;9.90;2.00;;;4.50;99.60;;;;;;4966856;28;20062;-72
2022/04/02 08:00:20;;;;;;;8.40;1.80;;;4.40;99.50;;;;;;4918390;28;239538;-72
2022/04/02 08:02:48;;;;;;;7.93;1.88;;;4.20;99.70;;;;;;4971614;28;20043;-73
2022/04/02 08:05:16;;;;;;;7.68;2.03;;;4.10;99.70;;;;;;4905642;28;154792;-73
2022/04/02 08:07:44;;;;;;;7.43;1.98;;;4.00;99.90;;;;;;4959305;28;20503;-73
2022/04/02 08:10:14;;;;;;;6.70;1.90;;;4.10;99.90;;;;;;4927479;28;259891;-73
2022/04/02 08:12:41;;;;;;;6.93;1.83;;;4.00;99.90;;;;;;4952481;28;20740;-73
2022/04/02 08:15:18;;;;;;;11.40;2.30;;;4.10;99.90;;;;;;4937502;28;233467;-73
2022/04/02 08:17:47;;;;;;;8.27;2.00;;;4.30;99.90;;;;;;4962374;28;20066;-73
2022/04/02 08:20:15;;;;;;;8.40;2.00;;;4.50;99.90;;;;;;4940422;28;92705;-72
2022/04/02 08:22:42;;;;;;;7.10;1.80;;;4.80;99.90;;;;;;4950863;28;20074;-72
2022/04/02 08:25:09;;;;;;;6.68;2.00;;;5.10;99.90;;;;;;4923922;28;180508;-72
2022/04/02 08:27:38;;;;;;;6.30;1.98;;;5.10;99.70;;;;;;4958123;28;20059;-73
2022/04/02 08:30:13;;;;;;;7.10;1.70;;;5.30;99.40;;;;;;4935518;28;180558;-72
2022/04/02 08:33:11;;;;;;;7.00;1.67;;;5.40;99.10;;;;;;4962173;28;20055;-72
2022/04/02 08:36:03;;;;;;;8.57;2.13;;;5.50;98.80;;;;;;4917593;28;188791;-72
2022/04/02 08:39:06;;;;;;;8.07;2.00;;;5.50;98.60;;;;;;4970804;28;20086;-72
2022/04/02 08:41:47;;;;;;;7.70;2.00;;;5.70;98.50;;;;;;4923850;28;20043;-72
2022/04/02 08:44:25;;;;;;;9.73;2.13;;;6.00;98.50;;;;;;4961948;28;97654;-72
2022/04/02 08:47:10;;;;;;;9.35;1.85;;;5.80;97.90;;;;;;4931789;28;20043;-72
2022/04/02 08:49:40;;;;;;;7.60;1.83;;;6.00;98.10;;;;;;4965875;28;228225;-72
2022/04/02 08:52:15;;;;;;;8.25;1.95;;;6.30;98.40;;;;;;4930788;28;20043;-72
2022/04/02 08:55:23;;;;;;;11.52;2.20;;;6.20;97.70;;;;;;4962558;28;130400;-72
2022/04/02 08:57:52;;;;;;;9.43;1.90;;;6.30;97.60;;;;;;4886074;29;20048;-72
2022/04/02 09:00:23;;;;;;;8.55;1.90;;;6.40;98.00;;;;;;4899893;28;218280;-72
2022/04/02 09:03:25;;;;;;;8.77;2.00;;;6.90;98.90;;;;;;4921044;29;20059;-72
2022/04/02 09:05:57;;;;;;;9.00;1.92;;;7.30;97.40;;;;;;4886648;28;121618;-72
2022/04/02 09:09:03;;;;;;;8.45;1.80;;;7.10;96.80;;;;;;4947633;28;20141;-72
2022/04/02 09:11:57;;;;;;;10.93;2.10;;;7.20;96.80;;;;;;4891618;28;20054;-72
2022/04/02 09:14:41;;;;;;;7.88;1.67;;;7.40;97.90;;;;;;4935151;28;27195;-72
2022/04/02 09:17:41;;;;;;;9.13;1.95;;;7.00;94.90;;;;;;4919482;28;20043;-72
2022/04/02 09:20:26;;;;;;;7.65;1.38;;;6.50;91.90;;;;;;4911508;28;81797;-72
2022/04/02 09:23:10;;;;;;;6.97;1.52;;;6.30;92.90;;;;;;4918881;29;20059;-72
2022/04/02 09:26:04;;;;;;;6.63;1.55;;;6.20;92.60;;;;;;4904030;28;145037;-72
2022/04/02 09:28:38;;;;;;;9.07;1.52;;;6.20;91.70;;;;;;4943245;28;20054;-72
2022/04/02 09:31:20;;;;;;;8.93;1.42;;;6.10;93.40;;;;;;4915066;28;142165;-73
2022/04/02 09:33:51;;;;;;;8.05;1.33;;;6.00;93.00;;;;;;4954830;28;20055;-73
2022/04/02 09:36:19;;;;;;;8.75;2.05;;;5.90;92.80;;;;;;4916875;28;20057;-73
2022/04/02 09:39:01;;;;;;;8.73;1.58;;;5.90;92.20;;;;;;4948272;28;20051;-73
2022/04/02 09:41:40;;;;;;;8.55;1.40;;;5.90;92.90;;;;;;4928524;28;20046;-72
2022/04/02 09:44:34;;;;;;;9.35;1.80;;;6.00;93.10;;;;;;4945668;28;264968;-73
2022/04/02 09:47:03;;;;;;;8.02;1.50;;;6.10;92.20;;;;;;4953640;28;20330;-71
2022/04/02 09:50:00;;;;;;;6.45;1.35;;;6.00;91.30;;;;;;4946818;28;268296;-72
2022/04/02 09:52:26;;;;;;;7.57;1.70;;;6.00;91.50;;;;;;4945517;28;20042;-72
2022/04/02 09:55:06;;;;;;;7.32;1.60;;;5.90;92.50;;;;;;4939546;28;257508;-72
2022/04/02 09:58:08;;;;;;;8.65;1.90;;;5.90;92.20;;;;;;4919525;28;20031;-73
2022/04/02 10:00:44;;;;;;;9.77;1.95;;;6.00;92.60;;;;;;4926043;28;36047;-72
2022/04/02 10:03:32;;;;;;;7.00;1.63;;;6.00;93.10;;;;;;4956549;28;20428;-72
2022/04/02 10:06:11;;;;;;;7.57;1.90;;;6.60;94.70;;;;;;4902941;28;198050;-72
2022/04/02 10:09:28;;;;;;;8.10;1.65;;;7.40;95.30;;;;;;4980495;28;20066;-73
2022/04/02 10:12:01;;;;;;;9.38;1.80;;;7.80;92.70;;;;;;4910068;28;20042;-73
2022/04/02 10:14:30;;;;;;;8.30;2.00;;;8.30;92.50;;;;;;4934016;28;237206;-72
2022/04/02 10:17:00;;;;;;;9.27;1.77;;;8.50;91.70;;;;;;4906985;28;20086;-72
2022/04/02 10:19:29;;;;;;;10.02;1.77;;;8.60;90.30;;;;;;4943369;28;49582;-72
2022/04/02 10:21:57;;;;;;;11.57;2.33;;;8.50;90.10;;;;;;4935963;28;20063;-72
2022/04/02 10:24:25;;;;;;;9.45;1.90;;;8.30;88.00;;;;;;4921591;28;73083;-72
2022/04/02 10:26:56;;;;;;;8.30;1.90;;;7.50;82.40;;;;;;4911249;28;20042;-72
2022/04/02 10:29:37;;;;;;;10.35;2.15;;;6.60;91.60;;;;;;4910872;29;184573;-73
2022/04/02 10:32:14;;;;;;;8.55;1.42;;;6.10;94.40;;;;;;4920874;28;20425;-73
2022/04/02 10:34:53;;;;;;;7.93;1.40;;;5.90;93.70;;;;;;4950721;28;50809;-73
2022/04/02 10:37:23;;;;;;;8.63;1.90;;;5.70;94.00;;;;;;4927810;28;20130;-72
2022/04/02 10:40:13;;;;;;;7.68;1.80;;;5.60;95.20;;;;;;4934688;28;170955;-73
2022/04/02 10:42:42;;;;;;;8.35;1.80;;;5.40;96.30;;;;;;4900063;28;20664;-73
2022/04/02 10:45:13;;;;;;;7.20;2.00;;;5.10;97.70;;;;;;4931121;28;76216;-73
2022/04/02 10:47:46;;;;;;;8.75;2.05;;;4.80;98.90;;;;;;4956541;28;20035;-73
2022/04/02 10:50:17;;;;;;;7.95;2.00;;;4.20;99.90;;;;;;4935293;28;84918;-73
2022/04/02 10:52:47;;;;;;;8.85;1.80;;;4.10;99.90;;;;;;4943984;28;20070;-73
2022/04/02 10:55:15;;;;;;;8.73;2.10;;;4.10;99.90;;;;;;4922410;28;36962;-73
2022/04/02 10:57:41;;;;;;;9.88;2.10;;;4.20;99.90;;;;;;4953050;28;20108;-73
2022/04/02 11:00:09;;;;;;;10.70;1.95;;;4.30;99.90;;;;;;4902284;28;243317;-74
2022/04/02 11:02:41;;;;;;;7.47;1.70;;;4.60;99.90;;;;;;4955446;28;20505;-73
2022/04/02 11:05:11;;;;;;;;;;;5.30;99.90;;;;;;4926282;28;133269;-74
2022/04/02 11:07:43;;;;;;;8.73;1.60;;;5.70;99.80;;;;;;4940992;28;20380;-75
2022/04/02 11:10:17;;;;;;;8.52;1.90;;;5.90;97.90;;;;;;4928601;28;122149;-75
2022/04/02 11:12:46;;;;;;;10.38;1.48;;;5.80;96.70;;;;;;4929776;28;20429;-75
2022/04/02 11:15:20;;;;;;;6.55;1.65;;;5.80;96.30;;;;;;4938485;28;93403;-75
2022/04/02 11:17:48;;;;;;;6.88;1.50;;;5.80;95.10;;;;;;4943254;28;20055;-75
2022/04/02 11:20:20;;;;;;;7.07;1.58;;;6.00;95.90;;;;;;4906889;28;132897;-74
2022/04/02 11:22:49;;;;;;;7.72;1.77;;;6.10;95.00;;;;;;4977781;28;20058;-75
2022/04/02 11:25:21;;;;;;;6.20;1.55;;;6.10;94.70;;;;;;4917797;28;174563;-75
2022/04/02 11:27:50;;;;;;;8.65;1.65;;;6.20;94.50;;;;;;4952622;28;20047;-74
2022/04/02 11:30:18;;;;;;;7.75;1.70;;;6.30;93.80;;;;;;4917156;28;102760;-75
2022/04/02 11:32:50;;;;;;;8.95;2.00;;;6.30;94.10;;;;;;4938571;28;20086;-75
2022/04/02 11:35:21;;;;;;;8.05;2.15;;;6.40;93.90;;;;;;4903407;28;248909;-75
2022/04/02 11:37:59;;;;;;;8.23;1.85;;;6.40;94.20;;;;;;4959338;28;20420;-75
2022/04/02 11:40:28;;;;;;;8.32;1.67;;;6.40;94.20;;;;;;4917157;28;197189;-75
2022/04/02 11:42:57;;;;;;;7.93;1.80;;;6.50;95.00;;;;;;4947366;28;20066;-74
2022/04/02 11:45:25;;;;;;;7.85;1.75;;;6.60;94.50;;;;;;4909148;28;216775;-74
2022/04/02 11:47:58;;;;;;;7.85;1.67;;;6.60;93.90;;;;;;4969286;28;20366;-75
2022/04/02 11:50:26;;;;;;;8.10;1.80;;;6.60;93.60;;;;;;4920396;28;50094;-75
2022/04/02 11:52:59;;;;;;;8.25;1.88;;;6.80;93.90;;;;;;4921061;28;20062;-74
2022/04/02 11:55:27;;;;;;;8.57;2.03;;;7.40;94.60;;;;;;4914345;28;268697;-75
2022/04/02 11:58:24;;;;;;;8.57;2.00;;;8.30;93.10;;;;;;4942570;28;20062;-73
2022/04/02 12:00:57;;;;;;;9.32;1.85;;;8.70;89.80;;;;;;4886529;28;168877;-74
2022/04/02 12:03:27;;;;;;;7.30;1.52;;;9.50;91.10;;;;;;4909132;29;20055;-74
2022/04/02 12:05:53;;;;;;;8.25;1.73;;;9.90;86.30;;;;;;4863269;28;212297;-74
2022/04/02 12:08:31;;;;;;;9.63;1.90;;;9.80;82.10;;;;;;4920943;29;20051;-74
2022/04/02 12:10:58;;;;;;;7.40;1.70;;;10.20;82.20;;;;;;4895532;28;23305;-75
2022/04/02 12:13:25;;;;;;;8.32;1.50;;;10.10;77.90;;;;;;4920258;29;20059;-74
2022/04/02 12:16:01;;;;;;;7.47;1.70;;;9.80;75.50;;;;;;4891824;28;223888;-74
2022/04/02 12:18:29;;;;;;;8.70;1.60;;;9.70;71.70;;;;;;4901358;29;20051;-74
2022/04/02 12:21:09;;;;;;;9.25;1.55;;;9.60;73.70;;;;;;4879718;28;130996;-74
2022/04/02 12:23:39;;;;;;;5.63;1.30;;;9.20;68.40;;;;;;4935618;28;20460;-74
2022/04/02 12:26:05;;;;;;;5.72;1.30;;;9.10;68.40;;;;;;4899042;28;190399;-74
2022/04/02 12:28:45;;;;;;;7.35;1.50;;;8.80;66.60;;;;;;4934402;28;20681;-74
2022/04/02 12:31:12;;;;;;;6.30;1.35;;;8.60;66.30;;;;;;4898830;28;185443;-74
2022/04/02 12:33:39;;;;;;;6.65;1.63;;;8.40;66.40;;;;;;4947269;28;20067;-74
2022/04/02 12:36:09;;;;;;;9.18;1.90;;;8.30;68.40;;;;;;4875270;28;148623;-74
2022/04/02 12:38:40;;;;;;;5.75;1.35;;;8.30;68.70;;;;;;4955054;28;20498;-74
2022/04/02 12:41:19;;;;;;;7.07;1.23;;;8.20;65.30;;;;;;4923132;28;128799;-74
2022/04/02 12:43:48;;;;;;;6.07;1.40;;;8.10;62.90;;;;;;4960081;28;20056;-74
2022/04/02 12:46:25;;;;;;;9.30;1.40;;;7.90;60.30;;;;;;4919614;28;20042;-73
2022/04/02 12:48:52;;;;;;;6.60;1.60;;;8.50;63.30;;;;;;4935846;28;268951;-73
2022/04/02 12:51:19;;;;;;;10.18;2.95;;;8.90;62.20;;;;;;4949068;28;20043;-74
2022/04/02 12:53:48;;;;;;;7.20;1.80;;;9.20;62.60;;;;;;4957092;28;20062;-74
2022/04/02 12:56:28;;;;;;;6.90;1.40;;;9.70;60.10;;;;;;4927712;28;20038;-75
2022/04/02 12:58:56;;;;;;;6.83;1.60;;;10.60;58.50;;;;;;4936520;28;266943;-74
2022/04/02 13:01:25;;;;;;;6.38;1.23;;;11.30;58.60;;;;;;4931266;28;20051;-74
2022/04/02 13:04:07;;;;;;;7.70;1.40;;;11.90;54.20;;;;;;4927375;28;255957;-74
2022/04/02 13:06:36;;;;;;;5.38;1.40;;;11.70;55.40;;;;;;4901967;28;20050;-74